createdAt,value
2018-05-23T00:00:16.125Z,100293.16
2018-05-23T00:02:43.748Z,100288.57
2018-05-23T00:05:11.427Z,100292.84
2018-05-23T00:07:39.074Z,100295.86
2018-05-23T00:10:07.704Z,100288.95
2018-05-23T00:12:35.312Z,100290.23
2018-05-23T00:15:02.928Z,100281.97
2018-05-23T00:17:30.693Z,100292.09
2018-05-23T00:19:58.387Z,100279.25
2018-05-23T00:22:26.073Z,100284.28
2018-05-23T00:24:53.825Z,100292.92
2018-05-23T00:27:21.601Z,100289.15
2018-05-23T00:29:49.263Z,100290.63
2018-05-23T00:32:16.957Z,100281.84
2018-05-23T00:34:44.569Z,100276.81
2018-05-23T00:37:15.013Z,100278.08
2018-05-23T00:39:43.620Z,100279.55
2018-05-23T00:42:11.334Z,100275.72
2018-05-23T00:44:38.956Z,100277.87
2018-05-23T00:47:06.556Z,100270.59
2018-05-23T00:49:34.212Z,100271.33
2018-05-23T00:52:01.874Z,100278.72
2018-05-23T00:54:29.441Z,100280.39
2018-05-23T00:56:57.404Z,100279.25
2018-05-23T00:59:25.088Z,100277.06
2018-05-23T01:01:52.682Z,100283.12
2018-05-23T01:04:20.318Z,100273.52
2018-05-23T01:06:47.992Z,100274.14
2018-05-23T01:09:15.751Z,100270.17
2018-05-23T01:11:43.308Z,100270.35
2018-05-23T01:14:10.937Z,100264.06
2018-05-23T01:16:38.532Z,100275.73
2018-05-23T01:19:07.034Z,100273.91
2018-05-23T01:21:34.673Z,100277.33
2018-05-23T01:24:02.304Z,100276.80
2018-05-23T01:26:30.985Z,100281.27
2018-05-23T01:28:59.349Z,100282.48
2018-05-23T01:31:26.925Z,100283.58
2018-05-23T01:33:54.761Z,100281.23
2018-05-23T01:36:22.362Z,100277.59
2018-05-23T01:38:49.956Z,100269.89
2018-05-23T01:41:17.837Z,100268.73
2018-05-23T01:43:45.469Z,100270.41
2018-05-23T01:46:13.162Z,100274.50
2018-05-23T01:48:52.682Z,100270.34
2018-05-23T01:51:20.342Z,100270.91
2018-05-23T01:53:47.901Z,100270.30
2018-05-23T01:56:15.572Z,100275.40
2018-05-23T01:58:43.980Z,100276.43
2018-05-23T02:01:11.649Z,100274.78
2018-05-23T02:03:39.253Z,100275.11
2018-05-23T02:06:06.927Z,100276.59
2018-05-23T02:08:34.580Z,100271.06
2018-05-23T02:11:02.212Z,100271.58
2018-05-23T02:13:29.880Z,100273.20
2018-05-23T02:15:57.602Z,100258.40
2018-05-23T02:18:25.249Z,100262.38
2018-05-23T02:20:52.829Z,100267.34
2018-05-23T02:23:22.024Z,100272.44
2018-05-23T02:25:49.738Z,100271.34
2018-05-23T02:28:17.348Z,100275.09
2018-05-23T02:30:45.812Z,100273.22
2018-05-23T02:33:13.418Z,100273.22
2018-05-23T02:35:41.067Z,100266.12
2018-05-23T02:38:09.022Z,100271.92
2018-05-23T02:40:36.829Z,100273.99
2018-05-23T02:43:04.418Z,100271.70
2018-05-23T02:45:31.981Z,100276.15
2018-05-23T02:48:00.456Z,100277.47
2018-05-23T02:50:28.147Z,100276.02
2018-05-23T02:52:55.809Z,100278.08
2018-05-23T02:55:23.460Z,100283.11
2018-05-23T02:57:52.026Z,100277.12
2018-05-23T03:00:19.642Z,100284.12
2018-05-23T03:02:47.268Z,100282.80
2018-05-23T03:05:14.998Z,100291.99
2018-05-23T03:07:42.573Z,100289.61
2018-05-23T03:10:10.206Z,100294.19
2018-05-23T03:12:37.865Z,100291.41
2018-05-23T03:15:08.372Z,100281.19
2018-05-23T03:17:35.993Z,100284.25
2018-05-23T03:20:03.690Z,100293.45
2018-05-23T03:22:31.281Z,100297.60
2018-05-23T03:24:59.131Z,100299.08
2018-05-23T03:27:26.748Z,100302.46
2018-05-23T03:29:54.489Z,100298.74
2018-05-23T03:32:22.190Z,100302.13
2018-05-23T03:34:50.691Z,100305.30
2018-05-23T03:37:18.288Z,100303.03
2018-05-23T03:39:45.877Z,100306.20
2018-05-23T03:42:13.563Z,100302.57
2018-05-23T03:44:41.240Z,100297.93
2018-05-23T03:47:08.813Z,100304.13
2018-05-23T03:49:36.457Z,100306.05
2018-05-23T03:52:04.152Z,100307.23
2018-05-23T03:54:31.885Z,100309.85
2018-05-23T03:56:59.484Z,100306.80
2018-05-23T03:59:38.820Z,100309.51
2018-05-23T04:02:18.175Z,100313.12
2018-05-23T04:04:58.396Z,100310.27
2018-05-23T04:07:44.688Z,100306.73
2018-05-23T04:10:12.442Z,100314.63
2018-05-23T04:12:40.086Z,100315.34
2018-05-23T04:15:07.834Z,100325.31
2018-05-23T04:17:35.463Z,100313.97
2018-05-23T04:20:03.142Z,100319.95
2018-05-23T04:22:30.776Z,100318.08
2018-05-23T04:24:58.399Z,100316.30
2018-05-23T04:27:26.060Z,100313.18
2018-05-23T04:29:53.715Z,100316.02
2018-05-23T04:32:21.295Z,100320.39
2018-05-23T04:34:48.864Z,100320.96
2018-05-23T04:37:16.428Z,100326.78
2018-05-23T04:39:44.007Z,100315.53
2018-05-23T04:42:11.572Z,100323.75
2018-05-23T04:44:39.266Z,100324.87
2018-05-23T04:47:06.832Z,100324.59
2018-05-23T04:49:34.497Z,100321.59
2018-05-23T04:52:02.069Z,100317.72
2018-05-23T04:54:29.697Z,100323.72
2018-05-23T04:56:57.288Z,100326.52
2018-05-23T04:59:25.082Z,100319.27
2018-05-23T05:01:52.775Z,100333.31
2018-05-23T05:04:20.458Z,100336.45
2018-05-23T05:06:48.097Z,100335.91
2018-05-23T05:09:16.495Z,100329.77
2018-05-23T05:11:44.077Z,100322.57
2018-05-23T05:14:11.710Z,100326.47
2018-05-23T05:16:39.293Z,100320.73
2018-05-23T05:19:06.916Z,100321.89
2018-05-23T05:21:34.508Z,100316.20
2018-05-23T05:24:02.153Z,100316.30
2018-05-23T05:26:29.742Z,100312.00
2018-05-23T05:28:57.317Z,100308.68
2018-05-23T05:31:25.026Z,100310.97
2018-05-23T05:33:52.680Z,100315.16
2018-05-23T05:36:20.356Z,100316.53
2018-05-23T05:38:48.236Z,100314.70
2018-05-23T05:41:15.817Z,100311.75
2018-05-23T05:43:43.546Z,100322.23
2018-05-23T05:46:11.269Z,100319.13
2018-05-23T05:48:38.849Z,100321.86
2018-05-23T05:51:06.453Z,100328.15
2018-05-23T05:53:34.065Z,100329.22
2018-05-23T05:56:01.714Z,100325.09
2018-05-23T05:58:29.340Z,100323.11
2018-05-23T06:00:56.978Z,100326.38
2018-05-23T06:03:24.754Z,100323.64
2018-05-23T06:05:52.677Z,100322.40
2018-05-23T06:08:20.349Z,100326.78
2018-05-23T06:10:47.974Z,100327.94
2018-05-23T06:13:15.594Z,100332.20
2018-05-23T06:15:43.280Z,100327.41
2018-05-23T06:18:10.950Z,100337.05
2018-05-23T06:20:38.540Z,100329.72
2018-05-23T06:23:06.245Z,100339.48
2018-05-23T06:25:34.029Z,100328.07
2018-05-23T06:28:01.677Z,100332.77
2018-05-23T06:30:29.295Z,100324.50
2018-05-23T06:32:56.877Z,100325.11
2018-05-23T06:35:24.476Z,100323.88
2018-05-23T06:37:52.194Z,100332.20
2018-05-23T06:40:19.876Z,100330.65
2018-05-23T06:42:47.508Z,100327.66
2018-05-23T06:45:15.160Z,100324.48
2018-05-23T06:47:42.809Z,100321.60
2018-05-23T06:50:10.564Z,100327.87
2018-05-23T06:52:38.287Z,100328.05
2018-05-23T06:55:05.851Z,100323.39
2018-05-23T06:57:33.418Z,100328.17
2018-05-23T07:00:01.042Z,100322.38
2018-05-23T07:02:28.694Z,100322.09
2018-05-23T07:04:56.371Z,100321.79
2018-05-23T07:07:23.956Z,100315.75
2018-05-23T07:09:51.612Z,100314.78
2018-05-23T07:12:19.192Z,100315.60
2018-05-23T07:14:46.827Z,100322.50
2018-05-23T07:17:14.404Z,100319.55
2018-05-23T07:19:41.985Z,100315.19
2018-05-23T07:22:09.735Z,100317.31
2018-05-23T07:24:37.377Z,100314.71
2018-05-23T07:27:05.022Z,100311.70
2018-05-23T07:29:32.606Z,100318.33
2018-05-23T07:32:00.205Z,100310.66
2018-05-23T07:34:27.802Z,100313.16
2018-05-23T07:36:55.433Z,100315.87
2018-05-23T07:39:23.096Z,100315.22
2018-05-23T07:41:50.664Z,100311.21
2018-05-23T07:44:18.280Z,100318.95
2018-05-23T07:46:45.985Z,100312.16
2018-05-23T07:49:13.596Z,100312.53
2018-05-23T07:51:41.228Z,100311.59
2018-05-23T07:54:08.877Z,100312.23
2018-05-23T07:56:36.710Z,100309.42
2018-05-23T07:59:04.369Z,100307.92
2018-05-23T08:01:31.960Z,100303.92
2018-05-23T08:03:59.593Z,100305.58
2018-05-23T08:06:27.256Z,100311.95
2018-05-23T08:08:54.850Z,100306.41
2018-05-23T08:11:22.505Z,100305.97
2018-05-23T08:13:50.200Z,100304.39
2018-05-23T08:16:17.805Z,100305.80
2018-05-23T08:18:45.400Z,100308.44
2018-05-23T08:21:12.974Z,100312.03
2018-05-23T08:23:40.579Z,100312.50
2018-05-23T08:26:08.222Z,100308.58
2018-05-23T08:28:35.866Z,100300.67
2018-05-23T08:31:04.376Z,100306.02
2018-05-23T08:33:32.099Z,100300.95
2018-05-23T08:35:59.693Z,100298.08
2018-05-23T08:38:27.296Z,100299.73
2018-05-23T08:40:54.885Z,100298.16
2018-05-23T08:43:22.529Z,100299.56
2018-05-23T08:45:51.091Z,100295.89
2018-05-23T08:48:18.808Z,100298.30
2018-05-23T08:50:46.428Z,100295.98
2018-05-23T08:53:14.161Z,100299.94
2018-05-23T08:55:41.900Z,100295.52
2018-05-23T08:58:09.537Z,100296.31
2018-05-23T09:00:37.130Z,100289.14
2018-05-23T09:03:05.042Z,100288.52
2018-05-23T09:05:39.496Z,100285.13
2018-05-23T09:08:07.167Z,100284.88
2018-05-23T09:10:34.744Z,100288.09
2018-05-23T09:13:02.424Z,100284.54
2018-05-23T09:15:30.139Z,100282.84
2018-05-23T09:17:58.050Z,100277.11
2018-05-23T09:20:25.625Z,100273.21
2018-05-23T09:22:53.349Z,100276.29
2018-05-23T09:25:21.810Z,100264.24
2018-05-23T09:27:50.225Z,100269.11
2018-05-23T09:30:17.839Z,100261.20
2018-05-23T09:32:45.432Z,100263.45
2018-05-23T09:35:13.131Z,100257.97
2018-05-23T09:37:41.106Z,100261.78
2018-05-23T09:40:08.815Z,100251.36
2018-05-23T09:42:36.444Z,100247.85
2018-05-23T09:45:04.226Z,100249.75
2018-05-23T09:47:31.911Z,100247.76
2018-05-23T09:49:59.509Z,100243.61
2018-05-23T09:52:27.172Z,100238.05
2018-05-23T09:54:54.873Z,100243.48
2018-05-23T09:57:22.489Z,100238.43
2018-05-23T09:59:50.096Z,100232.94
2018-05-23T10:02:17.796Z,100234.44
2018-05-23T10:04:45.431Z,100242.56
2018-05-23T10:07:13.012Z,100234.50
2018-05-23T10:09:40.644Z,100228.39
2018-05-23T10:12:08.286Z,100225.29
2018-05-23T10:14:35.860Z,100227.16
2018-05-23T10:17:03.566Z,100222.66
2018-05-23T10:19:31.213Z,100215.51
2018-05-23T10:21:58.854Z,100222.17
2018-05-23T10:24:26.501Z,100213.23
2018-05-23T10:26:54.180Z,100214.02
2018-05-23T10:29:21.777Z,100218.27
2018-05-23T10:31:49.445Z,100212.84
2018-05-23T10:34:17.033Z,100201.83
2018-05-23T10:36:44.742Z,100208.39
2018-05-23T10:39:12.412Z,100201.35
2018-05-23T10:41:39.968Z,100200.05
2018-05-23T10:44:07.653Z,100198.45
2018-05-23T10:46:35.247Z,100200.88
2018-05-23T10:49:02.876Z,100195.92
2018-05-23T10:51:30.445Z,100187.50
2018-05-23T10:53:58.169Z,100202.14
2018-05-23T10:56:25.845Z,100196.00
2018-05-23T10:58:53.482Z,100194.70
2018-05-23T11:01:21.120Z,100192.96
2018-05-23T11:03:48.692Z,100188.98
2018-05-23T11:06:16.350Z,100182.66
2018-05-23T11:08:43.937Z,100182.89
2018-05-23T11:11:11.648Z,100186.44
2018-05-23T11:13:39.287Z,100176.72
2018-05-23T11:16:06.888Z,100176.63
2018-05-23T11:18:34.525Z,100173.45
2018-05-23T11:21:02.092Z,100170.72
2018-05-23T11:23:29.765Z,100166.95
2018-05-23T11:25:57.341Z,100163.25
2018-05-23T11:28:24.933Z,100156.89
2018-05-23T11:30:52.525Z,100156.08
2018-05-23T11:33:20.147Z,100152.22
2018-05-23T11:35:47.853Z,100148.06
2018-05-23T11:38:15.456Z,100143.09
2018-05-23T11:40:43.850Z,100144.81
2018-05-23T11:43:11.425Z,100149.33
2018-05-23T11:45:39.097Z,100139.52
2018-05-23T11:48:06.777Z,100141.12
2018-05-23T11:50:34.405Z,100141.25
2018-05-23T11:53:02.100Z,100140.91
2018-05-23T11:55:29.685Z,100132.03
2018-05-23T11:57:57.375Z,100130.45
2018-05-23T12:00:25.138Z,100132.66
2018-05-23T12:02:52.861Z,100132.33
2018-05-23T12:05:20.484Z,100129.69
2018-05-23T12:07:48.082Z,100125.02
2018-05-23T12:10:15.746Z,100124.81
2018-05-23T12:12:43.437Z,100126.54
2018-05-23T12:15:11.028Z,100126.73
2018-05-23T12:17:39.856Z,100114.63
2018-05-23T12:20:07.537Z,100119.91
2018-05-23T12:22:35.148Z,100110.65
2018-05-23T12:25:02.729Z,100105.95
2018-05-23T12:27:30.526Z,100106.86
2018-05-23T12:29:58.116Z,100100.33
2018-05-23T12:32:25.727Z,100105.15
2018-05-23T12:34:53.360Z,100099.16
2018-05-23T12:37:20.916Z,100094.31
2018-05-23T12:39:48.474Z,100091.72
2018-05-23T12:42:16.062Z,100091.56
2018-05-23T12:44:43.710Z,100090.28
2018-05-23T12:47:11.362Z,100085.17
2018-05-23T12:49:39.016Z,100084.67
2018-05-23T12:52:06.709Z,100076.27
2018-05-23T12:54:34.325Z,100064.34
2018-05-23T12:57:01.929Z,100058.38
2018-05-23T12:59:29.608Z,100058.92
2018-05-23T13:01:57.736Z,100055.60
2018-05-23T13:04:25.324Z,100051.52
2018-05-23T13:06:52.909Z,100049.27
2018-05-23T13:09:20.554Z,100050.36
2018-05-23T13:11:48.167Z,100036.64
2018-05-23T13:14:15.764Z,100036.30
2018-05-23T13:16:43.422Z,100030.66
2018-05-23T13:19:11.002Z,100031.91
2018-05-23T13:21:38.600Z,100029.31
2018-05-23T13:24:06.169Z,100015.73
2018-05-23T13:26:33.816Z,100015.25
2018-05-23T13:29:01.402Z,100008.09
2018-05-23T13:31:28.985Z,100001.77
2018-05-23T13:33:56.649Z,99996.03
2018-05-23T13:36:24.213Z,99993.77
2018-05-23T13:38:51.851Z,99991.25
2018-05-23T13:41:19.457Z,99977.35
2018-05-23T13:43:47.178Z,99980.30
2018-05-23T13:46:14.842Z,99976.55
2018-05-23T13:48:42.497Z,99969.27
2018-05-23T13:51:10.124Z,99969.69
2018-05-23T13:53:37.689Z,99966.86
2018-05-23T13:56:05.321Z,99962.96
2018-05-23T13:58:32.937Z,99957.69
2018-05-23T14:01:00.645Z,99960.94
2018-05-23T14:03:28.204Z,99957.51
2018-05-23T14:05:55.765Z,99961.03
2018-05-23T14:08:23.328Z,99956.59
2018-05-23T14:10:50.909Z,99953.78
2018-05-23T14:13:18.605Z,99950.80
2018-05-23T14:15:46.223Z,99948.00
2018-05-23T14:18:13.852Z,99946.98
2018-05-23T14:20:41.557Z,99949.50
2018-05-23T14:23:12.360Z,99938.03
2018-05-23T14:25:40.027Z,99931.53
2018-05-23T14:28:07.704Z,99929.63
2018-05-23T14:30:35.346Z,99928.92
2018-05-23T14:33:02.917Z,99932.13
2018-05-23T14:35:30.529Z,99935.48
2018-05-23T14:37:58.175Z,99937.16
2018-05-23T14:40:25.728Z,99935.22
2018-05-23T14:42:53.292Z,99924.27
2018-05-23T14:45:20.921Z,99924.89
2018-05-23T14:47:48.568Z,99922.69
2018-05-23T14:50:16.136Z,99920.47
2018-05-23T14:52:43.784Z,99921.33
2018-05-23T14:55:11.380Z,99926.42
2018-05-23T14:57:39.745Z,99923.30
2018-05-23T15:00:07.333Z,99932.57
2018-05-23T15:02:35.016Z,99926.43
2018-05-23T15:05:02.653Z,99928.23
2018-05-23T15:07:30.312Z,99932.22
2018-05-23T15:09:57.967Z,99930.50
2018-05-23T15:12:25.839Z,99929.75
2018-05-23T15:14:53.584Z,99928.64
2018-05-23T15:17:21.175Z,99939.89
2018-05-23T15:19:48.849Z,99932.95
2018-05-23T15:22:18.312Z,99936.86
2018-05-23T15:24:45.883Z,99933.59
2018-05-23T15:27:13.550Z,99934.39
2018-05-23T15:29:41.072Z,99928.35
2018-05-23T15:32:08.641Z,99929.18
2018-05-23T15:34:36.233Z,99938.80
2018-05-23T15:37:03.787Z,99932.77
2018-05-23T15:39:31.360Z,99939.59
2018-05-23T15:41:58.939Z,99929.73
2018-05-23T15:44:26.557Z,99935.98
2018-05-23T15:46:54.226Z,99939.09
2018-05-23T15:49:21.928Z,99942.95
2018-05-23T15:51:49.536Z,99944.94
2018-05-23T15:54:17.117Z,99947.98
2018-05-23T15:56:44.760Z,99944.47
2018-05-23T15:59:12.416Z,99944.38
2018-05-23T16:01:39.980Z,99944.53
2018-05-23T16:04:07.592Z,99948.73
2018-05-23T16:06:35.156Z,99941.88
2018-05-23T16:09:02.848Z,99953.91
2018-05-23T16:11:30.417Z,99949.63
2018-05-23T16:13:58.060Z,99953.53
2018-05-23T16:16:25.845Z,99947.86
2018-05-23T16:18:53.397Z,99952.55
2018-05-23T16:21:20.964Z,99955.98
2018-05-23T16:23:48.528Z,99956.14
2018-05-23T16:26:16.082Z,99946.48
2018-05-23T16:28:43.625Z,99949.48
2018-05-23T16:31:11.232Z,99949.09
2018-05-23T16:33:38.803Z,99954.06
2018-05-23T16:36:06.384Z,99952.98
2018-05-23T16:38:34.035Z,99941.70
2018-05-23T16:41:01.596Z,99946.99
2018-05-23T16:43:29.209Z,99946.89
2018-05-23T16:45:56.829Z,99951.44
2018-05-23T16:48:24.412Z,99953.68
2018-05-23T16:50:52.019Z,99953.55
2018-05-23T16:53:19.600Z,99951.20
2018-05-23T16:55:47.164Z,99955.78
2018-05-23T16:58:14.716Z,99945.57
2018-05-23T17:00:42.305Z,99944.19
2018-05-23T17:03:09.932Z,99941.72
2018-05-23T17:05:37.512Z,99942.44
2018-05-23T17:08:05.140Z,99944.38
2018-05-23T17:10:32.797Z,99941.07
2018-05-23T17:13:00.456Z,99944.52
2018-05-23T17:15:28.028Z,99941.08
2018-05-23T17:17:55.636Z,99943.02
2018-05-23T17:20:30.141Z,99938.61
2018-05-23T17:22:58.748Z,99939.42
2018-05-23T17:25:26.348Z,99936.09
2018-05-23T17:27:54.775Z,99938.69
2018-05-23T17:30:22.452Z,99937.71
2018-05-23T17:32:50.065Z,99934.09
2018-05-23T17:35:17.649Z,99930.47
2018-05-23T17:37:45.234Z,99926.55
2018-05-23T17:40:12.923Z,99930.62
2018-05-23T17:42:40.443Z,99930.87
2018-05-23T17:45:08.106Z,99928.61
2018-05-23T17:47:35.636Z,99926.09
2018-05-23T17:50:03.206Z,99926.05
2018-05-23T17:52:30.820Z,99919.44
2018-05-23T17:54:58.403Z,99925.56
2018-05-23T17:57:26.046Z,99930.75
2018-05-23T17:59:53.610Z,99935.91
2018-05-23T18:02:21.256Z,99932.77
2018-05-23T18:04:48.838Z,99934.63
2018-05-23T18:07:16.506Z,99929.59
2018-05-23T18:09:44.092Z,99936.52
2018-05-23T18:12:11.765Z,99934.89
2018-05-23T18:14:39.352Z,99936.98
2018-05-23T18:17:06.936Z,99939.28
2018-05-23T18:19:34.528Z,99942.20
2018-05-23T18:22:02.153Z,99948.03
2018-05-23T18:24:29.777Z,99940.52
2018-05-23T18:26:57.444Z,99941.98
2018-05-23T18:29:25.164Z,99939.86
2018-05-23T18:31:52.785Z,99941.81
2018-05-23T18:34:20.377Z,99935.97
2018-05-23T18:36:48.220Z,99938.74
2018-05-23T18:39:15.841Z,99944.38
2018-05-23T18:41:43.521Z,99945.74
2018-05-23T18:44:11.157Z,99943.73
2018-05-23T18:46:39.476Z,99935.91
2018-05-23T18:49:07.124Z,99935.95
2018-05-23T18:51:34.786Z,99938.75
2018-05-23T18:54:02.379Z,99941.44
2018-05-23T18:56:30.004Z,99945.57
2018-05-23T18:58:57.600Z,99948.53
2018-05-23T19:01:25.173Z,99954.36
2018-05-23T19:03:52.738Z,99950.03
2018-05-23T19:06:20.415Z,99955.64
2018-05-23T19:08:48.007Z,99952.70
2018-05-23T19:11:15.617Z,99956.54
2018-05-23T19:13:43.229Z,99957.47
2018-05-23T19:16:10.852Z,99955.05
2018-05-23T19:18:38.543Z,99956.22
2018-05-23T19:21:06.089Z,99958.73
2018-05-23T19:23:33.723Z,99954.55
2018-05-23T19:26:01.511Z,99956.70
2018-05-23T19:28:29.093Z,99947.78
2018-05-23T19:30:56.757Z,99949.75
2018-05-23T19:33:24.343Z,99946.94
2018-05-23T19:35:52.000Z,99949.56
2018-05-23T19:38:19.611Z,99955.16
2018-05-23T19:40:47.201Z,99953.30
2018-05-23T19:43:14.857Z,99959.21
2018-05-23T19:45:42.455Z,99952.83
2018-05-23T19:48:10.077Z,99959.43
2018-05-23T19:50:37.672Z,99961.72
2018-05-23T19:53:05.349Z,99960.66
2018-05-23T19:55:32.965Z,99958.93
2018-05-23T19:58:00.584Z,99966.78
2018-05-23T20:00:28.215Z,99960.98
2018-05-23T20:02:55.834Z,99959.03
2018-05-23T20:05:23.417Z,99956.47
2018-05-23T20:07:51.124Z,99961.94
2018-05-23T20:10:18.645Z,99972.13
2018-05-23T20:12:46.267Z,99968.33
2018-05-23T20:15:13.893Z,99972.75
2018-05-23T20:17:41.604Z,99970.61
2018-05-23T20:20:09.245Z,99963.92
2018-05-23T20:22:36.916Z,99975.33
2018-05-23T20:25:04.572Z,99978.61
2018-05-23T20:27:32.186Z,99970.59
2018-05-23T20:29:59.807Z,99971.45
2018-05-23T20:32:27.471Z,99965.31
2018-05-23T20:34:55.194Z,99972.83
2018-05-23T20:37:22.824Z,99969.94
2018-05-23T20:39:50.421Z,99968.89
2018-05-23T20:42:18.076Z,99968.28
2018-05-23T20:44:45.680Z,99969.94
2018-05-23T20:47:13.361Z,99972.15
2018-05-23T20:49:40.918Z,99969.59
2018-05-23T20:52:09.419Z,99972.70
2018-05-23T20:54:37.065Z,99979.39
2018-05-23T20:57:04.798Z,99980.95
2018-05-23T20:59:33.092Z,99976.78
2018-05-23T21:02:00.715Z,99975.41
2018-05-23T21:04:28.537Z,99964.96
2018-05-23T21:06:56.184Z,99971.67
2018-05-23T21:09:23.875Z,99969.59
2018-05-23T21:11:52.244Z,99962.99
2018-05-23T21:14:19.856Z,99966.61
2018-05-23T21:16:47.611Z,99969.50
2018-05-23T21:19:15.234Z,99973.30
2018-05-23T21:21:42.948Z,99969.21
2018-05-23T21:24:10.709Z,99975.16
2018-05-23T21:26:38.321Z,99981.05
2018-05-23T21:29:06.680Z,99974.03
2018-05-23T21:31:34.417Z,99973.91
2018-05-23T21:34:02.129Z,99971.91
2018-05-23T21:36:29.844Z,99969.32
2018-05-23T21:38:57.595Z,99969.87
2018-05-23T21:41:25.535Z,99973.00
2018-05-23T21:43:53.240Z,99967.31
2018-05-23T21:46:20.896Z,99969.46
2018-05-23T21:48:48.561Z,99962.63
2018-05-23T21:51:16.161Z,99963.79
2018-05-23T21:53:44.412Z,99961.77
2018-05-23T21:56:12.073Z,99963.11
2018-05-23T21:58:39.677Z,99962.83
2018-05-23T22:01:07.370Z,99957.55
2018-05-23T22:03:35.225Z,99960.33
2018-05-23T22:06:03.284Z,99957.94
2018-05-23T22:08:31.632Z,99958.08
2018-05-23T22:10:59.228Z,99968.36
2018-05-23T22:13:27.182Z,99965.39
2018-05-23T22:15:55.469Z,99972.44
2018-05-23T22:18:23.036Z,99968.52
2018-05-23T22:20:50.699Z,99965.88
2018-05-23T22:23:18.357Z,99960.70
2018-05-23T22:25:46.042Z,99963.19
2018-05-23T22:28:13.750Z,99962.94
2018-05-23T22:30:41.652Z,99967.14
2018-05-23T22:33:10.053Z,99961.14
2018-05-23T22:35:37.696Z,99952.18
2018-05-23T22:38:06.345Z,99948.46
2018-05-23T22:40:33.908Z,99952.44
2018-05-23T22:43:04.477Z,99950.82
2018-05-23T22:45:32.423Z,99954.58
2018-05-23T22:48:00.009Z,99956.64
2018-05-23T22:50:28.565Z,99948.48
2018-05-23T22:52:56.212Z,99950.82
2018-05-23T22:55:23.803Z,99951.94
2018-05-23T22:57:51.408Z,99951.38
2018-05-23T23:00:23.982Z,99950.45
2018-05-23T23:02:51.712Z,99947.00
2018-05-23T23:05:19.425Z,99948.25
2018-05-23T23:07:47.143Z,99949.83
2018-05-23T23:10:14.829Z,99941.72
2018-05-23T23:12:42.786Z,99947.34
2018-05-23T23:15:10.530Z,99938.79
2018-05-23T23:17:38.244Z,99939.78
2018-05-23T23:20:06.076Z,99931.55
2018-05-23T23:22:39.983Z,99946.47
2018-05-23T23:25:07.552Z,99947.78
2018-05-23T23:27:35.117Z,99947.20
2018-05-23T23:30:02.749Z,99944.82
2018-05-23T23:32:31.360Z,99944.14
2018-05-23T23:34:59.772Z,99936.48
2018-05-23T23:37:27.401Z,99941.86
2018-05-23T23:39:55.071Z,99935.95
2018-05-23T23:42:22.736Z,99934.27
2018-05-23T23:44:50.453Z,99937.09
2018-05-23T23:47:18.125Z,99940.44
2018-05-23T23:49:46.548Z,99935.42
2018-05-23T23:52:14.217Z,99932.02
2018-05-23T23:54:42.151Z,99942.77
2018-05-23T23:57:09.785Z,99944.55
2018-05-23T23:59:38.361Z,99940.68
